Tasman Crusader — A8NQ7 — position and weather

sailwx.info

Track history (hours):
 
Tides and Currents Weather Stations Pressure Air Temp Water Temp Dewpoint Dewpoint Depression Visibility Wind Speed Wind Dir Waves Ship Positions

Tasman Crusader

Last reported at 2015-Sep-02 23:33 UTC. Time now 2015-Sep-03 04:33 UTC.
Position N 34°09' W 119°13'.

Length 186 m; draft 9.8 m.

Type: Ship (hazmat cat D). MMSI: 636091434.

Date/timePositionNaut miles runAvg speedWind from/ knotsBaromVisibWave heightAir tempDewpointWater temp
2015-Sep-02 23:33N 34°09' W 119°13'5 4.7
2015-Sep-02 22:33N 34°04' W 119°15'1110.8
2015-Sep-02 21:33N 33°59' W 119°04'1211.8
2015-Sep-02 20:31N 33°53' W 118°51'1211.6
2015-Sep-02 19:27N 33°46' W 118°38'3010.4
2015-Sep-02 16:33N 33°31' W 118°07'1111.1
2015-Sep-02 15:33N 33°21' W 118°03'9 9.3
2015-Sep-02 14:33N 33°12' W 117°59'4 3.9
2015-Sep-02 13:33N 33°08' W 117°57'7 7.3
2015-Sep-02 12:33N 33°01' W 117°54'9 8.8
2015-Sep-02 11:33N 32°53' W 117°51'1413.8
2015-Sep-02 10:34N 32°40' W 117°46'1615.8
2015-Sep-02 09:33N 32°25' W 117°40'1616.0
2015-Sep-02 08:33N 32°10' W 117°33'1716.0
2015-Sep-02 07:31N 31°54' W 117°26'3315.4
2015-Sep-02 05:22N 31°23' W 117°14'2715.0
2015-Sep-02 03:33N 30°57' W 117°03'  
Track history (hours):
 
Tides and Currents Weather Stations Pressure Air Temp Water Temp Dewpoint Dewpoint Depression Visibility Wind Speed Wind Dir Waves Ship Positions

Tasman Crusader

Last reported at 2015-Sep-02 23:33 UTC. Time now 2015-Sep-03 04:33 UTC.
Position N 34°09' W 119°13'.

Length 186 m; draft 9.8 m.

Type: Ship (hazmat cat D). MMSI: 636091434.

Date/timePositionNaut miles runAvg speedWind from/ knotsBaromVisibWave heightAir tempDewpointWater temp
2015-Sep-02 23:33N 34°09' W 119°13'5 4.7
2015-Sep-02 22:33N 34°04' W 119°15'1110.8
2015-Sep-02 21:33N 33°59' W 119°04'1211.8
2015-Sep-02 20:31N 33°53' W 118°51'1211.6
2015-Sep-02 19:27N 33°46' W 118°38'3010.4
2015-Sep-02 16:33N 33°31' W 118°07'1111.1
2015-Sep-02 15:33N 33°21' W 118°03'9 9.3
2015-Sep-02 14:33N 33°12' W 117°59'4 3.9
2015-Sep-02 13:33N 33°08' W 117°57'7 7.3
2015-Sep-02 12:33N 33°01' W 117°54'9 8.8
2015-Sep-02 11:33N 32°53' W 117°51'1413.8
2015-Sep-02 10:34N 32°40' W 117°46'1615.8
2015-Sep-02 09:33N 32°25' W 117°40'1616.0
2015-Sep-02 08:33N 32°10' W 117°33'1716.0
2015-Sep-02 07:31N 31°54' W 117°26'3315.4
2015-Sep-02 05:22N 31°23' W 117°14'2715.0
2015-Sep-02 03:33N 30°57' W 117°03'  

Dump ship's entire track history